East Corinth, VT (05076)

9:54 AM EDT on June 24, 2017 (GMT -0400)
The Bagalio Bowl | | Change Station

Elev 1580 ft 44.11 °N, 72.26 °W | Updated 3 seconds ago

Overcast
Overcast
72.8 °F
Feels Like 72 °F
N
1.0
Wind Variable Wind from West

Today
High -- | Low -- °F
--% Chance of Precip.
Yesterday
High -- | Low -- °F
Precip. -- in
Pressure 29.59 in
Visibility 10.0 miles
Clouds Few 3400 ft
Scattered Clouds 4500 ft
Scattered Clouds 7000 ft
Heat Index 72 °F
Dew Point 67 °F
Humidity 83%
Rainfall 0.51 in
Snow Depth Not available.
5:06 AM 8:36 PM
New Moon, 0% visible
METAR KMPV 241351Z AUTO 29006KT 10SM FEW034 SCT045 SCT070 22/19 A2960 RMK AO2 RAB1256E18 SLP018 P0000 T02170194
Pressure 29.59 in
Visibility 10.0 miles
Clouds Few 3400 ft
Scattered Clouds 4500 ft
Scattered Clouds 7000 ft
Heat Index 72 °F
Dew Point 67 °F
Humidity 83%
Rainfall 0.51 in
Snow Depth Not available.
5:06 AM 8:36 PM
New Moon, 0% visible
METAR KMPV 241351Z AUTO 29006KT 10SM FEW034 SCT045 SCT070 22/19 A2960 RMK AO2 RAB1256E18 SLP018 P0000 T02170194

Get Severe Weather Alerts

Thanks for signing up!

Be on the lookout for a verification email in your inbox.

You'll start receiving the daily forecast at 6 AM.

×

10-Day Weather Forecast

Almanac

Astronomy

Jun. 24, 2017 Rise Set
Actual Time
Civil Twilight
Nautical Twilight
Astronomical Twilight
Moon
Length of Visible Light
Length of Day
Tomorrow will be .
, % of the Moon is Illuminated

Today's Extremes

State Highs State Lows

Community

WunderPhotos

Category 6

Welcome to Category 6. This is the collective home for Weather Underground's featured writeups by Dr. Jeff Masters (right), Bob Henson (left), Chris Burt, and other regular contributors.

Nearby

Air Quality

  Air Quality AQ Index Pollutant
Not available.

Snow Depth

Station Depth Elevation

Earthquake Activity

City Distance Mag. Time & Date
Minimum magnitude displayed is 2.5.

Coastal Water Temperatures

Place Temperature

Stations

Nearby Weather Stations

Station Location Temp. Windchill Dew Point Humidity Wind Precip. Elev Updated Type
                   

Watches & Warnings

There are currently no watches in effect.